Arches Natl Park, Utah
Current Conditions -  °F | °C
As of 6:53 AM on Sunday 23 Nov 2014 (Local Time) from KCNY Reporting Station
Clear Clear  
Wind Chill: -4°   Ceiling: Unl
Heat Index:   Visibility: 10mi
Dew Point: -7°   Wind: 22mph
Humidity: 52%   Direction: 290°WNW
Pressure: 29.93"   Gusts: NA
Location:  38.7°N, 109.75°W
Report Text: KCNY 231353Z AUTO 29019KT 10SM CLR 02/M07 A2993 RMK AO2 PK WND 28031/1309 SLP139 T00221067
Loading
Personal Weather Stations






























Interactive Weather Map New forecast layout! Learn more

10-Day Weather Forecast

Advertisements
Track Severe Weather on mobile